Snoqualmie, WA

9:10 PM PST on January 24, 2015 (GMT -0800)
Indian Hill | Change Station
CLOSE
Current Station
Personal Weather Station
Location: Snoqualmie, WA
Elevation: 817 ft
Nearby Weather Stations

Elev 817 ft 47.54 °N, 121.79 °W | Updated 15 seconds ago

Overcast
Overcast
54.5 °F
Feels Like 54.5 °F
N
0.0
Wind Variable Wind from ESE
Gusts 1.0 mph

Today
High -- | Low -- °F
--% Chance of Precip.
Yesterday
High -- | Low -- °F
Precip. -- in
7:43 AM 4:56 PM
Waxing Crescent, 28% visible
Pressure 30.24 in
Visibility 10.0 miles
Clouds Scattered Clouds 2400 ft
Overcast 3600 ft
Dew Point 54 °F
Humidity 100%
Rainfall 0.15 in
Snow Depth Not available.
UV 0.0 out of 12
Pollen .60 out of 12
Air Quality Not available.
Flu Activity Not available.
METAR KRNT 250453Z AUTO 00000KT 10SM SCT024 OVC036 13/12 A3022 RMK AO2 SLP239 T01330122

More Conditions Fewer Conditions

Pressure 30.24 in
Visibility 10.0 miles
Clouds Scattered Clouds 2400 ft
Overcast 3600 ft
Dew Point 54 °F
Humidity 100%
Rainfall 0.15 in
Snow Depth Not available.
UV 0.0 out of 12
Pollen .60 out of 12
Air Quality Not available.
Flu Activity Not available.
METAR KRNT 250453Z AUTO 00000KT 10SM SCT024 OVC036 13/12 A3022 RMK AO2 SLP239 T01330122

More Conditions Fewer Conditions

10-Day Weather Forecast

Almanac

Astronomy

Jan. 24, 2015 Rise Set
Actual Time
Civil Twilight
Nautical Twilight
Astronomical Twilight
Moon
Length of Visible Light
Length of Day
Tomorrow will be .
, % of the Moon is Illuminated

Today's Extremes

State Highs State Lows

Community

WunderPhotos

Upload Photos

1,789,843 photos uploaded!

WunderBlogs® & News

Nearby

Air Quality

  Air Quality AQ Index Pollutant
Not available.

Snow Depth

Station Depth Elevation

Earthquake Activity

City Distance Mag. Time & Date
Minimum magnitude displayed is 2.5.

Coastal Water Temperatures

Place Temperature

Nearby Weather Stations